Terminal Aerodrome Forecast
Issued by NWS

Home | Current Version | Previous Version | Graphics & Text | Print | Product List | Glossary On
Versions: 1 2 3 4 5 6 7 8 9 10 11 12 13 14 15 16 17
359
FTUS43 KICT 210422 AAD
TAFHUT
TAF AMD
KHUT 210422Z 2104/2124 19004KT 1/2SM FG SCT002 OVC025
      TEMPO 2104/2106 2SM BR
     FM210600 26007KT 5SM BR SKC
     FM211100 27007KT P6SM SKC
     FM211500 17003KT P6SM BKN100
     FM212000 13009KT P6SM OVC080=

USA.gov is the U.S. government's official web portal to all federal, state and local government web resources and services.